Capitol Logistics 99

Operating for DHL



LLBG
Ben Gurion International Airport
Tel Aviv, IL
EDDK
Cologne Bonn Airport
Cologne, DE

Route Details

Aircraft Information
Group: European Fleet
Types: A30F,A31F,B738
Route Data
Demand: V
Distance: 1669nm
Duration: 4h 45m
Recm'd Route: SUVA2C SUVAS N128 OTHON UN128 RDS UL609 MES UG18 FSK UL608 DISOR LONTA UL608 DOLEV GORPA ERKIR VEKIR UMDAS T844 ASKIK T840 GULKO GULK24
Origin Wx: LLBG 272050Z 34004KT CAVOK 23/19 Q1010 NOSIG
Dest. Wx: EDDK 272050Z AUTO 32010KT CAVOK 12/04 Q1023 NOSIG
Notes:

Financial History
Total Freight: 101,260lbs
Average Load: 50,630lbs/flt
Fuel Used: 77,959lbs
Avg. Fuel Used: 38,980lbs/flt
Fuel Expense: $27,570
Avg. Fuel Expense: $13,785
Avg. Fuel Cost: $0.34/lbs
Total Gross Income: $268,455
Pilot Pay: $428
Total Expenses: $37,177
Total Revenue: $201,920
Average Revenue: $134,227.69